Time;durP1;ratioP1;P1;durP2;ratioP2;P2;SDS_P1;SDS_P2;PMS_P1;PMS_P2;Temp;Humidity;BMP_temperature;BMP_pressure;BME280_temperature;BME280_humidity;BME280_pressure;Samples;Min_cycle;Max_cycle;Signal;HPM_P1;HPM_P2
2023/05/27 00:01:13;;;;;;;35.70;21.33;;;7.10;99.90;6.30;101494;;;;578523;245;24117;-77
2023/05/27 00:03:41;;;;;;;27.03;6.93;;;7.10;99.90;6.30;101499;;;;586946;245;24069;-74
2023/05/27 00:06:09;;;;;;;40.75;10.20;;;7.30;99.90;6.30;101494;;;;573338;245;35275;-76
2023/05/27 00:08:38;;;;;;;24.57;8.63;;;7.20;99.90;6.30;101493;;;;578389;245;24115;-80
2023/05/27 00:11:06;;;;;;;21.00;6.00;;;7.40;99.90;6.30;101493;;;;578214;245;24104;-78
2023/05/27 00:13:35;;;;;;;89.50;37.40;;;7.20;99.90;6.30;101499;;;;577635;245;24149;-80
2023/05/27 00:16:03;;;;;;;98.73;45.53;;;7.20;99.90;6.30;101493;;;;578144;245;24086;-78
2023/05/27 00:18:34;;;;;;;17.87;6.83;;;7.20;99.90;6.30;101494;;;;572491;245;24061;-77
2023/05/27 00:21:02;;;;;;;24.10;7.10;;;7.00;99.90;6.30;101497;;;;577588;245;24056;-78
2023/05/27 00:23:27;;;;;;;21.63;6.40;;;7.30;99.90;6.30;101491;;;;577800;245;24105;-78
2023/05/27 00:25:55;;;;;;;26.60;7.43;;;7.00;99.90;6.20;101490;;;;577245;245;24083;-74
2023/05/27 00:28:23;;;;;;;30.07;20.43;;;6.90;99.90;6.20;101494;;;;576742;245;24056;-74
2023/05/27 00:30:51;;;;;;;12.67;4.60;;;7.10;99.90;6.30;101488;;;;576807;245;24071;-75
2023/05/27 00:33:21;;;;;;;21.27;6.57;;;6.60;99.90;6.30;101486;;;;576672;245;24087;-74
2023/05/27 00:35:47;;;;;;;15.60;6.07;;;7.00;99.90;6.30;101486;;;;576821;245;24081;-74
2023/05/27 00:38:16;;;;;;;24.73;6.80;;;7.20;99.90;6.30;101486;;;;576772;245;24109;-75
2023/05/27 00:40:44;;;;;;;17.03;5.43;;;7.10;99.90;6.20;101491;;;;576717;245;24082;-75
2023/05/27 00:43:12;;;;;;;19.77;6.17;;;7.20;99.90;6.20;101487;;;;576809;245;24077;-75
2023/05/27 00:45:40;;;;;;;15.73;6.43;;;7.10;99.90;6.10;101479;;;;577335;245;24069;-77
2023/05/27 00:48:12;;;;;;;17.50;5.73;;;7.00;99.90;6.10;101486;;;;579099;244;24060;-76
2023/05/27 00:50:36;;;;;;;31.30;7.77;;;7.10;99.90;6.10;101485;;;;578671;245;24111;-75
2023/05/27 00:53:04;;;;;;;15.20;5.00;;;7.00;99.90;6.10;101486;;;;571525;245;24092;-75
2023/05/27 00:55:32;;;;;;;22.20;6.03;;;6.90;99.90;6.10;101489;;;;578129;245;24057;-74
2023/05/27 00:58:00;;;;;;;21.80;6.97;;;7.00;99.90;6.00;101489;;;;577706;245;24074;-75
2023/05/27 01:00:28;;;;;;;26.90;6.97;;;7.10;99.90;6.00;101487;;;;576061;245;24083;-74
2023/05/27 01:02:56;;;;;;;20.67;7.10;;;7.00;99.90;6.00;101492;;;;577739;245;24099;-75
2023/05/27 01:05:24;;;;;;;26.50;8.90;;;6.90;99.90;6.00;101483;;;;577587;245;24108;-73
2023/05/27 01:08:01;;;;;;;22.27;7.80;;;6.80;99.90;6.00;101489;;;;577774;245;24118;-75
2023/05/27 01:10:38;;;;;;;27.43;7.87;;;6.90;99.90;6.00;101490;;;;579260;245;24082;-74
2023/05/27 01:13:24;;;;;;;34.47;10.20;;;7.00;99.90;6.00;101492;;;;572173;245;35531;-74
2023/05/27 01:15:52;;;;;;;28.47;8.37;;;6.90;99.90;6.00;101493;;;;577061;245;24171;-75
2023/05/27 01:18:22;;;;;;;14.90;6.40;;;6.90;99.90;6.00;101494;;;;575220;245;24161;-74
2023/05/27 01:20:48;;;;;;;15.07;5.43;;;6.90;99.90;5.90;101497;;;;570688;245;24073;-79
2023/05/27 01:23:19;;;;;;;24.17;6.80;;;6.80;99.90;5.90;101494;;;;571303;245;24063;-78
2023/05/27 01:25:44;;;;;;;23.27;6.17;;;7.80;99.90;5.90;101495;;;;571720;245;24156;-75
2023/05/27 01:28:12;;;;;;;22.13;6.53;;;6.90;99.90;5.90;101496;;;;577343;245;24077;-74
2023/05/27 01:30:41;;;;;;;21.87;5.57;;;6.60;99.90;5.90;101496;;;;578185;245;24080;-76
2023/05/27 01:33:09;;;;;;;22.13;6.67;;;6.80;99.90;5.90;101499;;;;578490;245;24125;-75
2023/05/27 01:35:40;;;;;;;28.60;7.53;;;6.90;99.90;5.90;101503;;;;576333;245;24117;-77
2023/05/27 01:38:09;;;;;;;20.00;6.60;;;6.80;99.90;5.90;101508;;;;585604;245;24180;-75
2023/05/27 01:40:37;;;;;;;28.23;6.93;;;7.30;99.90;5.80;101496;;;;586736;245;24141;-76
2023/05/27 01:43:09;;;;;;;22.17;6.47;;;6.80;99.90;5.80;101503;;;;576415;245;24066;-75
2023/05/27 01:45:34;;;;;;;12.37;4.70;;;6.70;99.90;5.80;101504;;;;577309;245;24077;-75
2023/05/27 01:48:02;;;;;;;28.27;7.40;;;6.60;99.90;5.80;101505;;;;571918;245;35213;-75
2023/05/27 01:50:33;;;;;;;19.07;6.13;;;6.70;99.90;5.80;101508;;;;577655;245;24088;-75
2023/05/27 01:53:01;;;;;;;18.83;6.47;;;6.80;99.90;5.70;101508;;;;578551;245;24145;-76
2023/05/27 01:55:30;;;;;;;20.07;5.40;;;6.70;99.90;5.70;101505;;;;578487;245;24188;-81
2023/05/27 01:57:58;;;;;;;24.77;6.70;;;6.60;99.90;5.70;101506;;;;582076;241;24064;-80
2023/05/27 02:00:29;;;;;;;25.90;8.30;;;6.60;99.90;5.70;101515;;;;577756;245;24028;-74
2023/05/27 02:02:55;;;;;;;28.37;8.50;;;6.60;99.90;5.60;101511;;;;587528;240;24032;-75
2023/05/27 02:05:22;;;;;;;20.93;6.77;;;6.50;99.90;5.60;101511;;;;587930;240;23955;-80
2023/05/27 02:07:50;;;;;;;23.90;6.60;;;6.60;99.90;5.60;101509;;;;588288;240;24017;-75
2023/05/27 02:10:19;;;;;;;19.30;5.60;;;6.50;99.90;5.60;101512;;;;587199;240;24050;-75
2023/05/27 02:12:48;;;;;;;24.47;6.37;;;6.40;99.90;5.50;101508;;;;587151;240;24043;-77
2023/05/27 02:15:15;;;;;;;24.97;8.07;;;6.40;99.90;5.50;101503;;;;587287;240;24013;-76
2023/05/27 02:17:45;;;;;;;24.60;7.47;;;6.50;99.90;5.50;101504;;;;587416;241;24002;-75
2023/05/27 02:20:15;;;;;;;22.67;7.67;;;6.40;99.90;5.50;101514;;;;587248;241;24004;-75
2023/05/27 02:22:39;;;;;;;40.75;13.70;;;6.60;99.90;5.60;101511;;;;581989;241;34863;-79
2023/05/27 02:25:07;;;;;;;34.50;10.67;;;6.60;99.90;5.60;101520;;;;588536;241;23993;-75
2023/05/27 02:27:36;;;;;;;31.90;9.53;;;6.50;99.90;5.60;101520;;;;597666;239;24078;-76
2023/05/27 02:30:04;;;;;;;24.23;7.00;;;6.30;99.90;5.60;101525;;;;587628;241;24002;-74
2023/05/27 02:32:32;;;;;;;18.43;6.27;;;6.70;99.90;5.60;101534;;;;597015;241;24021;-76
2023/05/27 02:34:59;;;;;;;20.60;5.83;;;6.60;99.90;5.60;101531;;;;587678;241;26346;-75
2023/05/27 02:37:27;;;;;;;21.67;5.33;;;6.60;99.90;5.60;101531;;;;587253;241;24088;-78
2023/05/27 02:39:56;;;;;;;22.83;6.67;;;6.50;99.90;5.60;101534;;;;586900;241;24012;-74
2023/05/27 02:42:24;;;;;;;13.77;5.87;;;6.70;99.90;5.70;101543;;;;586877;241;24068;-76
2023/05/27 02:44:52;;;;;;;17.37;5.20;;;6.60;99.90;5.70;101536;;;;586723;241;23995;-75
2023/05/27 02:47:20;;;;;;;15.40;5.33;;;6.60;99.90;5.80;101540;;;;586947;241;24108;-79
2023/05/27 02:49:49;;;;;;;22.37;6.80;;;6.70;99.90;5.80;101537;;;;587185;241;24015;-78
2023/05/27 02:52:17;;;;;;;14.63;4.80;;;6.70;99.90;5.90;101538;;;;586863;241;24034;-76
2023/05/27 02:54:46;;;;;;;21.43;6.77;;;6.80;99.90;5.90;101542;;;;596212;239;24007;-78
2023/05/27 02:57:14;;;;;;;15.07;6.20;;;6.80;99.90;5.90;101538;;;;586188;241;24010;-76
2023/05/27 02:59:46;;;;;;;22.30;7.07;;;7.00;99.90;6.00;101537;;;;574750;245;24425;-77
2023/05/27 03:02:11;;;;;;;17.90;5.97;;;6.90;99.90;6.00;101543;;;;581921;244;24068;-75
2023/05/27 03:04:42;;;;;;;32.23;7.57;;;6.90;99.90;6.10;101549;;;;577144;244;24051;-73
2023/05/27 03:07:07;;;;;;;14.07;5.83;;;7.00;99.90;6.20;101556;;;;582432;244;24055;-76
2023/05/27 03:09:35;;;;;;;27.47;5.80;;;7.10;99.90;6.20;101548;;;;577254;244;24026;-75
2023/05/27 03:12:03;;;;;;;17.53;6.30;;;7.00;99.90;6.30;101556;;;;578338;243;24102;-74
2023/05/27 03:14:32;;;;;;;15.60;5.40;;;7.20;99.90;6.40;101553;;;;583382;243;24008;-76
2023/05/27 03:17:00;;;;;;;16.60;5.50;;;7.40;99.90;6.50;101559;;;;583076;244;24108;-74
2023/05/27 03:19:28;;;;;;;13.73;5.37;;;7.40;99.90;6.60;101559;;;;577395;244;24044;-75
2023/05/27 03:21:57;;;;;;;19.03;5.73;;;7.40;99.90;6.70;101550;;;;574809;244;24047;-74
2023/05/27 03:24:26;;;;;;;21.47;5.47;;;7.60;99.90;6.90;101558;;;;575165;244;24024;-74
2023/05/27 03:26:54;;;;;;;18.83;6.33;;;7.90;99.90;7.40;101560;;;;575113;244;24036;-77
2023/05/27 03:29:22;;;;;;;18.47;5.77;;;8.50;99.90;7.90;101564;;;;575063;245;24038;-75
2023/05/27 03:31:50;;;;;;;13.80;5.27;;;9.10;99.90;8.50;101573;;;;575098;245;24042;-75
2023/05/27 03:34:18;;;;;;;18.03;5.80;;;9.70;99.90;9.10;101570;;;;580422;245;24033;-74
2023/05/27 03:36:46;;;;;;;17.17;5.43;;;10.30;99.90;9.60;101580;;;;575066;245;24083;-74
2023/05/27 03:39:14;;;;;;;17.80;5.20;;;10.70;99.90;10.20;101577;;;;580345;242;24050;-75
2023/05/27 03:41:45;;;;;;;16.57;5.63;;;11.30;99.90;10.70;101576;;;;580314;242;24054;-75
2023/05/27 03:44:10;;;;;;;16.97;6.13;;;12.10;99.90;11.30;101583;;;;580411;245;24125;-75
2023/05/27 03:46:38;;;;;;;24.10;6.20;;;12.00;99.90;11.80;101581;;;;580511;242;24029;-74
2023/05/27 03:49:07;;;;;;;20.07;5.87;;;13.10;99.90;12.30;101583;;;;580541;245;24050;-75
2023/05/27 03:51:35;;;;;;;22.87;7.03;;;13.60;99.90;12.80;101581;;;;580074;243;23055;-75
2023/05/27 03:54:04;;;;;;;23.73;6.43;;;14.10;99.90;13.40;101578;;;;580590;245;24042;-75
2023/05/27 03:56:33;;;;;;;15.17;5.10;;;14.70;99.90;13.90;101586;;;;580753;242;25060;-76
2023/05/27 03:59:01;;;;;;;20.07;5.40;;;14.90;99.90;14.30;101586;;;;580035;243;24099;-76
2023/05/27 04:01:29;;;;;;;21.27;6.43;;;15.40;99.90;14.80;101589;;;;580167;245;24430;-76
2023/05/27 04:03:57;;;;;;;22.93;6.37;;;15.90;99.90;15.10;101594;;;;574575;245;24033;-75
2023/05/27 04:06:25;;;;;;;20.10;6.10;;;16.30;99.90;15.60;101586;;;;580110;242;24028;-74
2023/05/27 04:08:53;;;;;;;12.73;5.10;;;16.40;99.90;16.20;101599;;;;579875;245;25369;-76
2023/05/27 04:11:22;;;;;;;17.13;5.33;;;17.60;99.90;16.80;101607;;;;580266;245;24106;-76
2023/05/27 04:13:48;;;;;;;13.77;4.70;;;17.60;99.90;17.40;101594;;;;579979;245;24047;-76
2023/05/27 04:16:16;;;;;;;16.80;4.93;;;18.30;99.90;17.90;101595;;;;579758;242;24051;-74
2023/05/27 04:18:49;;;;;;;15.27;5.80;;;18.80;99.90;18.50;101615;;;;579764;242;23057;-75
2023/05/27 04:21:18;;;;;;;15.67;5.97;;;19.90;99.90;19.10;101600;;;;579520;245;24144;-76
2023/05/27 04:23:46;;;;;;;14.83;5.67;;;20.50;99.90;19.70;101608;;;;581051;244;24031;-75
2023/05/27 04:26:16;;;;;;;12.17;4.87;;;20.60;99.90;20.20;101602;;;;575612;244;24017;-74
2023/05/27 04:28:45;;;;;;;18.37;6.00;;;21.10;99.90;20.70;101607;;;;589582;243;24141;-75
2023/05/27 04:31:12;;;;;;;14.47;5.43;;;21.70;99.90;21.20;101608;;;;580484;244;24114;-75
2023/05/27 04:33:41;;;;;;;16.77;5.37;;;22.70;95.90;21.60;101608;;;;580302;244;23098;-75
2023/05/27 04:36:11;;;;;;;16.10;5.80;;;23.10;93.90;22.10;101617;;;;580382;244;23046;-78
2023/05/27 04:38:37;;;;;;;14.70;5.47;;;23.70;92.00;22.70;101619;;;;580123;244;23047;-75
2023/05/27 04:41:05;;;;;;;16.27;6.10;;;24.40;88.90;23.30;101621;;;;580175;245;24152;-76
2023/05/27 04:43:33;;;;;;;18.83;5.77;;;24.80;85.00;23.80;101625;;;;580191;242;24057;-76
2023/05/27 04:46:01;;;;;;;16.27;5.13;;;25.50;82.00;24.40;101628;;;;580327;242;23059;-76
2023/05/27 04:48:29;;;;;;;20.33;7.13;;;25.50;81.90;24.90;101632;;;;580309;245;23055;-75
2023/05/27 04:50:57;;;;;;;17.40;6.63;;;26.70;74.80;25.50;101621;;;;580191;245;24049;-76
2023/05/27 04:53:25;;;;;;;24.03;6.30;;;26.70;75.20;26.20;101631;;;;579943;243;23061;-78
2023/05/27 04:55:53;;;;;;;22.83;6.07;;;27.40;72.00;26.70;101627;;;;580638;242;23128;-76
2023/05/27 04:58:21;;;;;;;17.45;6.03;;;28.00;68.80;27.30;101640;;;;580299;242;23070;-78
2023/05/27 05:00:53;;;;;;;14.68;5.72;;;28.60;66.00;27.90;101645;;;;579696;242;23053;-76
2023/05/27 05:03:26;;;;;;;12.70;5.70;;;29.20;63.70;28.50;101647;;;;579523;245;23037;-80
2023/05/27 05:05:54;;;;;;;17.52;5.90;;;30.20;59.20;29.10;101652;;;;579546;245;23079;-76
2023/05/27 05:08:19;;;;;;;11.07;5.12;;;30.70;56.70;29.50;101662;;;;579384;245;23085;-77
2023/05/27 05:10:48;;;;;;;14.50;5.57;;;31.10;55.30;29.80;101659;;;;579674;245;23029;-76
2023/05/27 05:13:20;;;;;;;12.60;4.85;;;31.60;53.70;30.30;101658;;;;579733;245;24082;-76
2023/05/27 05:15:45;;;;;;;11.27;4.40;;;31.90;52.90;30.80;101655;;;;579510;245;23040;-76
2023/05/27 05:18:14;;;;;;;22.08;5.85;;;32.20;52.00;31.00;101657;;;;579556;242;23046;-79
2023/05/27 05:20:45;;;;;;;15.18;5.20;;;32.50;51.50;31.40;101665;;;;565061;250;23081;-79
2023/05/27 05:23:14;;;;;;;11.93;4.07;;;32.80;50.60;31.70;101672;;;;562171;251;23140;-80
2023/05/27 05:25:42;;;;;;;13.82;5.05;;;32.70;50.50;32.00;101672;;;;565317;250;24110;-77
2023/05/27 05:28:10;;;;;;;11.05;4.40;;;33.00;49.70;32.30;101664;;;;554309;254;23096;-76
2023/05/27 05:30:38;;;;;;;10.38;4.55;;;33.20;49.20;32.60;101666;;;;562399;251;23105;-82
2023/05/27 05:33:06;;;;;;;15.68;5.57;;;33.60;48.70;32.80;101676;;;;565589;246;23130;-76
2023/05/27 05:35:35;;;;;;;11.98;5.22;;;34.10;47.30;33.00;101669;;;;555819;254;24139;-78
2023/05/27 05:38:03;;;;;;;14.52;5.37;;;34.60;46.40;33.70;101681;;;;563057;250;23105;-77
2023/05/27 05:40:32;;;;;;;16.83;6.32;;;34.80;45.20;34.00;101677;;;;566052;247;24133;-75
2023/05/27 05:43:00;;;;;;;15.45;5.68;;;34.90;45.30;34.00;101682;;;;554904;254;23183;-76
2023/05/27 05:45:30;;;;;;;9.43;4.65;;;35.20;45.60;34.30;101675;;;;562751;251;24116;-76
2023/05/27 05:47:57;;;;;;;16.98;5.75;;;35.10;44.80;34.40;101682;;;;565816;245;24113;-78
2023/05/27 05:50:26;;;;;;;12.65;4.93;;;35.30;45.10;34.50;101681;;;;562688;251;23101;-77
2023/05/27 05:52:53;;;;;;;12.35;4.40;;;35.30;44.20;34.60;101685;;;;565702;246;23066;-78
2023/05/27 05:55:21;;;;;;;10.68;4.22;;;35.50;44.10;35.00;101692;;;;573689;242;23075;-79
2023/05/27 05:57:49;;;;;;;10.80;4.43;;;35.70;43.00;35.10;101690;;;;562279;251;23123;-79
2023/05/27 06:00:17;;;;;;;11.90;4.93;;;35.90;42.10;34.70;101694;;;;565596;247;23082;-76
2023/05/27 06:02:45;;;;;;;13.00;4.62;;;35.70;41.70;34.80;101696;;;;555019;250;23119;-80
2023/05/27 06:05:16;;;;;;;11.35;4.72;;;35.70;42.00;35.10;101698;;;;557766;251;23163;-77
2023/05/27 06:07:41;;;;;;;10.13;3.97;;;35.90;42.00;35.60;101707;;;;563939;254;24104;-79
2023/05/27 06:10:12;;;;;;;14.02;4.87;;;36.30;40.60;35.40;101697;;;;562350;249;23086;-82
2023/05/27 06:12:37;;;;;;;18.15;4.35;;;36.30;40.40;35.50;101700;;;;563595;247;23131;-77
2023/05/27 06:15:08;;;;;;;21.98;6.35;;;36.30;41.10;36.10;101695;;;;558117;251;23105;-77
2023/05/27 06:17:34;;;;;;;11.82;3.65;;;36.80;39.70;36.40;101710;;;;574014;250;23100;-77
2023/05/27 06:20:01;;;;;;;11.75;4.30;;;37.00;38.40;36.40;101701;;;;554797;254;23094;-76
2023/05/27 06:22:28;;;;;;;10.05;4.90;;;37.20;38.20;36.60;101711;;;;562846;251;23098;-81
2023/05/27 06:24:56;;;;;;;12.88;4.20;;;37.30;36.60;36.90;101706;;;;565645;246;23099;-84
2023/05/27 06:27:24;;;;;;;11.02;3.00;;;37.60;36.20;36.90;101716;;;;556175;254;23221;-85
2023/05/27 06:29:52;;;;;;;5.28;2.47;;;37.60;35.00;36.10;101716;;;;566177;250;23068;-84
2023/05/27 06:32:21;;;;;;;4.72;2.30;;;36.60;35.00;35.50;101719;;;;563042;251;23154;-83
2023/05/27 06:34:52;;;;;;;5.35;2.55;;;36.50;34.90;36.00;101723;;;;566207;250;23068;-81
2023/05/27 06:37:17;;;;;;;7.90;3.15;;;36.70;35.20;35.90;101726;;;;562876;251;23099;-81
2023/05/27 06:39:46;;;;;;;11.93;3.70;;;36.70;35.20;36.60;101723;;;;565990;248;24107;-78
2023/05/27 06:42:14;;;;;;;6.32;2.90;;;37.10;34.10;37.10;101731;;;;554946;254;23087;-78
2023/05/27 06:44:43;;;;;;;10.82;3.60;;;37.80;34.50;37.10;101733;;;;562696;251;23106;-77
2023/05/27 06:47:14;;;;;;;5.37;2.70;;;37.80;34.50;36.90;101737;;;;567315;247;23083;-81
2023/05/27 06:49:43;;;;;;;6.50;2.42;;;37.50;34.10;36.70;101743;;;;563819;251;23113;-76
2023/05/27 06:52:08;;;;;;;4.85;2.45;;;37.20;34.20;36.50;101746;;;;566441;250;23074;-76
2023/05/27 06:54:37;;;;;;;7.70;3.00;;;37.30;33.30;36.70;101751;;;;555832;251;23123;-79
2023/05/27 06:57:05;;;;;;;5.55;2.75;;;37.70;31.80;37.20;101744;;;;571955;250;23150;-78
2023/05/27 06:59:33;;;;;;;8.13;3.12;;;37.60;31.70;37.80;101751;;;;565861;248;23086;-75
2023/05/27 07:02:01;;;;;;;4.95;2.15;;;38.20;32.30;38.10;101759;;;;563340;251;23128;-80
2023/05/27 07:04:29;;;;;;;10.95;2.58;;;38.60;30.40;37.50;101748;;;;566328;245;23059;-77
2023/05/27 07:06:57;;;;;;;4.00;2.00;;;38.20;30.40;37.30;101745;;;;555461;254;23084;-81
2023/05/27 07:09:25;;;;;;;5.78;2.40;;;38.10;30.60;37.40;101753;;;;563419;251;23109;-81
2023/05/27 07:11:53;;;;;;;12.85;4.15;;;38.00;31.60;38.00;101750;;;;564477;247;23070;-77
2023/05/27 07:14:21;;;;;;;3.25;2.00;;;38.40;31.60;38.20;101748;;;;555080;254;23094;-77
2023/05/27 07:16:49;;;;;;;5.10;2.85;;;38.90;32.00;39.10;101746;;;;562474;251;23104;-78
2023/05/27 07:19:17;;;;;;;5.85;2.62;;;39.50;32.40;40.00;101757;;;;565632;248;23101;-77
2023/05/27 07:21:46;;;;;;;4.30;2.30;;;40.30;31.20;39.90;101751;;;;554262;254;23127;-76
2023/05/27 07:24:18;;;;;;;6.28;2.42;;;40.50;31.20;39.90;101752;;;;571220;250;23099;-77
2023/05/27 07:26:43;;;;;;;7.82;2.47;;;40.60;30.20;39.50;101748;;;;565504;250;23124;-76
2023/05/27 07:29:12;;;;;;;4.30;2.35;;;40.40;30.20;39.80;101757;;;;562521;251;23090;-75
2023/05/27 07:31:40;;;;;;;12.73;2.92;;;40.70;30.50;40.00;101767;;;;565464;248;23076;-75
2023/05/27 07:34:08;;;;;;;5.93;2.70;;;40.70;30.50;40.80;101772;;;;554332;254;23095;-75
2023/05/27 07:36:37;;;;;;;7.75;2.65;;;41.30;30.10;41.00;101763;;;;562382;251;23091;-77
2023/05/27 07:39:04;;;;;;;9.52;2.85;;;41.70;29.90;41.60;101761;;;;565281;249;23064;-76
2023/05/27 07:41:33;;;;;;;5.85;3.28;;;42.10;30.10;42.30;101756;;;;562178;251;23139;-76
2023/05/27 07:44:00;;;;;;;4.72;2.47;;;42.70;30.00;42.50;101756;;;;565179;250;23085;-77
2023/05/27 07:46:31;;;;;;;6.12;2.58;;;43.10;29.40;42.10;101760;;;;549342;254;35274;-76
2023/05/27 07:48:57;;;;;;;7.32;2.92;;;43.10;28.50;41.20;101754;;;;555379;252;23131;-75
2023/05/27 07:51:25;;;;;;;6.28;3.00;;;42.40;28.80;41.40;101758;;;;570678;249;23122;-76
2023/05/27 07:53:54;;;;;;;8.35;3.22;;;42.20;29.00;40.80;101763;;;;565423;248;24077;-78
2023/05/27 07:56:21;;;;;;;8.35;2.90;;;41.80;28.80;41.00;101746;;;;553981;254;23096;-76
2023/05/27 07:58:50;;;;;;;12.77;4.12;;;41.70;29.60;42.00;101756;;;;563636;251;23115;-77
2023/05/27 08:01:18;;;;;;;5.15;2.58;;;42.20;29.40;42.50;101750;;;;567108;248;23070;-77
2023/05/27 08:03:46;;;;;;;6.03;2.95;;;43.50;29.00;43.20;101754;;;;556034;251;23144;-76
2023/05/27 08:06:16;;;;;;;13.35;3.87;;;43.40;28.90;44.00;101750;;;;563401;251;23090;-76
2023/05/27 08:08:45;;;;;;;7.70;3.12;;;44.50;27.70;44.00;101756;;;;566381;250;23097;-77
2023/05/27 08:11:12;;;;;;;6.85;2.90;;;44.50;27.60;43.50;101741;;;;555517;251;23091;-76
2023/05/27 08:13:44;;;;;;;17.67;4.37;;;44.40;27.90;43.30;101749;;;;563371;251;23211;-76
2023/05/27 08:16:09;;;;;;;21.98;5.05;;;44.00;28.80;43.30;101746;;;;566343;250;23093;-76
2023/05/27 08:18:40;;;;;;;4.87;2.42;;;43.90;28.70;43.90;101742;;;;555086;254;23103;-76
2023/05/27 08:21:05;;;;;;;10.02;3.53;;;44.30;28.40;44.30;101747;;;;556009;253;23095;-77
2023/05/27 08:23:33;;;;;;;6.20;2.67;;;45.10;27.50;44.30;101747;;;;562922;251;24135;-76
2023/05/27 08:26:01;;;;;;;4.60;2.53;;;45.10;27.50;43.40;101743;;;;565717;248;23063;-76
2023/05/27 08:28:29;;;;;;;5.03;2.65;;;44.50;27.70;43.20;101742;;;;562146;251;23108;-76
2023/05/27 08:30:57;;;;;;;8.95;4.03;;;44.30;28.00;43.10;101740;;;;565718;248;23078;-75
2023/05/27 08:33:26;;;;;;;10.35;3.62;;;44.20;28.10;41.80;101739;;;;553969;254;23103;-76
2023/05/27 08:35:53;;;;;;;7.50;2.75;;;43.40;28.50;42.10;101739;;;;561960;251;23097;-76
2023/05/27 08:38:25;;;;;;;3.97;2.35;;;43.10;29.20;43.00;101741;;;;565236;246;23071;-76
2023/05/27 08:40:50;;;;;;;6.00;2.72;;;43.40;28.80;43.30;101745;;;;554191;254;23095;-77
2023/05/27 08:43:22;;;;;;;8.63;3.35;;;44.00;28.40;43.00;101744;;;;562674;251;23093;-86
2023/05/27 08:45:46;;;;;;;6.10;3.22;;;44.10;28.00;41.30;101735;;;;565784;250;23091;-83
2023/05/27 08:48:14;;;;;;;5.93;2.87;;;43.20;28.20;40.40;101735;;;;555036;254;23097;-77
2023/05/27 08:50:42;;;;;;;6.57;2.92;;;42.00;28.90;40.80;101728;;;;562900;251;23103;-76
2023/05/27 08:53:13;;;;;;;4.53;2.58;;;41.90;29.20;41.30;101728;;;;565413;247;23068;-77
2023/05/27 08:55:40;;;;;;;4.15;2.45;;;42.20;29.00;42.00;101728;;;;562371;249;23120;-77
2023/05/27 08:58:07;;;;;;;7.72;3.20;;;43.60;28.20;42.70;101742;;;;555591;254;23163;-83
2023/05/27 09:00:35;;;;;;;8.20;3.15;;;43.60;28.20;42.80;101741;;;;562855;251;23105;-86
2023/05/27 09:03:03;;;;;;;5.32;2.30;;;43.90;27.90;42.90;101733;;;;565152;245;23055;-77
2023/05/27 09:05:31;;;;;;;8.98;3.30;;;44.20;27.40;40.40;101736;;;;555878;254;23091;-77
2023/05/27 09:07:59;;;;;;;6.05;2.47;;;42.60;27.70;39.80;101741;;;;558243;249;23130;-79
2023/05/27 09:10:39;;;;;;;8.85;2.92;;;41.50;27.70;40.30;101744;;;;567644;249;23112;-76
2023/05/27 09:13:08;;;;;;;5.37;2.45;;;42.20;27.40;41.40;101736;;;;563521;251;23139;-75
2023/05/27 09:15:37;;;;;;;5.45;2.67;;;42.70;27.40;41.70;101740;;;;555811;254;23100;-75
2023/05/27 09:18:09;;;;;;;6.22;2.35;;;42.70;27.30;41.60;101734;;;;563271;251;23121;-86
2023/05/27 09:20:33;;;;;;;5.90;2.58;;;42.90;27.00;42.00;101735;;;;556248;254;23143;-79
2023/05/27 09:23:01;;;;;;;9.85;3.08;;;43.20;27.10;42.30;101729;;;;563160;251;24138;-75
2023/05/27 09:25:30;;;;;;;6.10;2.72;;;43.40;26.80;41.50;101743;;;;565685;250;23174;-76
2023/05/27 09:27:58;;;;;;;3.45;1.80;;;43.10;26.80;40.80;101736;;;;562792;251;23122;-77
2023/05/27 09:30:27;;;;;;;6.70;3.67;;;42.50;26.50;40.70;101728;;;;562594;250;23081;-77
2023/05/27 09:32:54;;;;;;;9.35;4.82;;;42.40;27.40;41.70;101729;;;;554397;254;23095;-76
2023/05/27 09:35:22;;;;;;;6.15;2.25;;;42.90;27.10;41.10;101718;;;;561737;251;23095;-80
2023/05/27 09:37:50;;;;;;;5.07;2.47;;;42.70;26.00;40.40;101720;;;;565233;246;23125;-81
2023/05/27 09:40:18;;;;;;;3.53;1.95;;;42.10;25.60;40.20;101715;;;;554542;254;23154;-76
2023/05/27 09:42:45;;;;;;;7.82;2.37;;;41.70;26.30;41.00;101713;;;;562311;249;23098;-76
2023/05/27 09:45:17;;;;;;;2.58;1.60;;;42.20;26.80;42.10;101717;;;;565565;250;23071;-78
2023/05/27 09:47:41;;;;;;;7.60;2.62;;;43.10;26.60;42.00;101716;;;;562036;250;23161;-74
2023/05/27 09:50:11;;;;;;;8.80;3.17;;;43.60;26.70;42.40;101721;;;;555514;252;23114;-73
2023/05/27 09:52:39;;;;;;;4.85;2.47;;;44.40;25.60;43.40;101720;;;;555230;254;23211;-75
2023/05/27 09:55:07;;;;;;;4.18;2.22;;;44.50;25.50;42.80;101720;;;;561625;251;23146;-76
2023/05/27 09:57:41;;;;;;;7.50;2.85;;;44.80;25.50;43.10;101726;;;;573554;250;23120;-75
2023/05/27 10:00:11;;;;;;;6.35;2.95;;;44.80;25.50;43.10;101725;;;;551377;254;23112;-78
2023/05/27 10:02:36;;;;;;;5.00;2.00;;;45.10;25.20;43.30;101721;;;;564472;248;23075;-76
2023/05/27 10:05:02;;;;;;;6.40;2.22;;;45.10;25.10;43.60;101718;;;;561760;251;24144;-76
2023/05/27 10:07:35;;;;;;;5.47;2.25;;;45.50;24.80;43.60;101722;;;;554903;254;23167;-76
2023/05/27 10:10:05;;;;;;;4.85;2.42;;;45.80;24.90;43.60;101723;;;;562047;249;23141;-78
2023/05/27 10:12:29;;;;;;;5.22;2.37;;;45.80;24.40;43.40;101717;;;;564533;250;23094;-77
2023/05/27 10:14:57;;;;;;;4.55;2.00;;;45.00;24.80;43.10;101722;;;;561938;251;23218;-81
2023/05/27 10:17:25;;;;;;;5.72;2.22;;;45.00;24.70;41.70;101724;;;;565030;248;23085;-77
2023/05/27 10:19:59;;;;;;;22.62;4.37;;;44.10;25.10;40.60;101722;;;;554242;252;23151;-76
2023/05/27 10:22:27;;;;;;;6.93;2.53;;;43.00;25.20;39.30;101727;;;;558754;248;23093;-78
2023/05/27 10:24:55;;;;;;;4.35;1.83;;;41.70;25.50;38.10;101733;;;;566232;245;23071;-77
2023/05/27 10:27:23;;;;;;;4.15;2.05;;;40.50;25.40;37.00;101722;;;;554676;254;23173;-77
2023/05/27 10:30:00;;;;;;;9.35;2.85;;;39.10;25.60;35.90;101728;;;;562876;251;23156;-76
2023/05/27 10:32:28;;;;;;;5.82;2.10;;;38.20;25.90;35.10;101726;;;;565437;246;23094;-79
2023/05/27 10:34:56;;;;;;;8.10;2.65;;;37.20;26.70;33.60;101717;;;;561752;251;23148;-77
2023/05/27 10:37:26;;;;;;;6.07;2.10;;;34.50;28.40;32.60;101719;;;;555640;254;23134;-79
2023/05/27 10:39:58;;;;;;;13.75;2.72;;;32.90;28.60;31.20;101717;;;;562345;251;24130;-78
2023/05/27 10:42:25;;;;;;;12.65;3.47;;;31.10;29.70;29.60;101724;;;;565414;250;24073;-78
2023/05/27 10:44:53;;;;;;;10.30;2.90;;;29.60;29.00;28.30;101715;;;;554615;254;23161;-80
2023/05/27 10:47:21;;;;;;;10.63;3.17;;;28.10;30.00;27.10;101702;;;;561854;251;23135;-80
2023/05/27 10:49:49;;;;;;;10.60;2.47;;;27.00;31.20;26.10;101711;;;;555449;251;24161;-75
2023/05/27 10:52:17;;;;;;;21.40;5.57;;;25.80;32.30;24.80;101698;;;;562482;251;23099;-76
2023/05/27 10:54:50;;;;;;;11.10;2.50;;;24.80;34.20;24.00;101700;;;;566124;250;23125;-79
2023/05/27 10:57:12;;;;;;;10.03;3.13;;;24.00;34.60;23.20;101692;;;;562114;250;24068;-80
2023/05/27 10:59:49;;;;;;;12.50;3.47;;;23.30;35.10;22.70;101691;;;;566048;248;23171;-83
2023/05/27 11:02:17;;;;;;;10.63;3.30;;;22.90;35.30;22.30;101695;;;;551372;254;46291;-85
2023/05/27 11:04:45;;;;;;;6.30;2.33;;;22.50;36.40;22.00;101681;;;;557884;251;35291;-83
2023/05/27 11:07:13;;;;;;;13.73;3.63;;;22.20;37.70;21.70;101685;;;;563023;250;24050;-81
2023/05/27 11:09:47;;;;;;;6.82;2.47;;;21.80;37.80;21.10;101677;;;;556587;251;35410;-74
2023/05/27 11:12:17;;;;;;;13.10;3.87;;;21.20;39.40;20.60;101676;;;;565006;250;24055;-74
2023/05/27 11:14:45;;;;;;;9.43;2.60;;;20.80;39.70;20.10;101671;;;;554752;255;23186;-74